Time;durP1;ratioP1;P1;durP2;ratioP2;P2;SDS_P1;SDS_P2;PMS_P1;PMS_P2;Temp;Humidity;BMP_temperature;BMP_pressure;BME280_temperature;BME280_humidity;BME280_pressure;Samples;Min_cycle;Max_cycle;Signal;HPM_P1;HPM_P2
2020/12/31 00:31:04;;;;;;;4.73;2.90;;;2.00;99.90;;;;;;6212391;23;20024;-93
2020/12/31 00:33:30;;;;;;;5.47;3.20;;;2.00;99.90;;;;;;6212338;23;19993;-95
2020/12/31 00:35:58;;;;;;;6.17;3.07;;;1.90;99.90;;;;;;6211417;23;20005;-95
2020/12/31 00:38:24;;;;;;;4.87;2.27;;;1.90;99.90;;;;;;6212090;23;20036;-95
2020/12/31 00:40:52;;;;;;;4.77;2.60;;;1.90;99.90;;;;;;6212136;23;19989;-94
2020/12/31 00:43:17;;;;;;;6.87;2.90;;;1.90;99.90;;;;;;6211764;23;19989;-92
2020/12/31 00:45:43;;;;;;;5.87;2.70;;;1.80;99.90;;;;;;6211630;23;20020;-95
2020/12/31 00:48:09;;;;;;;4.67;2.50;;;1.80;99.90;;;;;;6211093;23;19989;-94
2020/12/31 00:50:34;;;;;;;5.67;2.77;;;1.80;99.90;;;;;;6211677;23;20011;-95
2020/12/31 00:53:00;;;;;;;5.40;3.00;;;1.80;99.90;;;;;;6211438;23;19992;-95
2020/12/31 00:55:27;;;;;;;4.60;2.33;;;1.70;99.90;;;;;;6211560;23;19991;-96
2020/12/31 00:57:52;;;;;;;5.23;2.23;;;1.70;99.90;;;;;;6211696;23;19989;-93
2020/12/31 01:00:18;;;;;;;5.03;2.70;;;1.70;99.90;;;;;;6211190;23;19985;-96
2020/12/31 01:02:44;;;;;;;5.90;3.00;;;1.70;99.90;;;;;;6211471;23;19985;-91
2020/12/31 01:05:11;;;;;;;4.50;2.47;;;1.70;99.90;;;;;;6210911;23;19985;-95
2020/12/31 01:07:36;;;;;;;5.67;2.90;;;1.70;99.90;;;;;;6211692;23;20016;-93
2020/12/31 01:10:04;;;;;;;7.37;3.13;;;1.60;99.90;;;;;;6210551;23;19993;-96
2020/12/31 01:12:30;;;;;;;5.00;2.80;;;1.60;99.90;;;;;;6210815;23;20044;-94
2020/12/31 01:14:56;;;;;;;4.97;2.90;;;1.50;99.90;;;;;;6211169;23;19995;-94
2020/12/31 01:17:25;;;;;;;5.13;2.97;;;1.50;99.90;;;;;;6211272;23;19993;-93
2020/12/31 01:19:50;;;;;;;5.83;3.07;;;1.50;99.90;;;;;;6209864;23;20041;-96
2020/12/31 01:22:17;;;;;;;6.83;3.10;;;1.50;99.90;;;;;;6210891;23;19989;-94
2020/12/31 01:24:42;;;;;;;6.07;2.87;;;1.50;99.90;;;;;;6211075;23;20003;-95
2020/12/31 01:27:08;;;;;;;5.33;3.30;;;1.50;99.90;;;;;;6211565;23;19989;-94
2020/12/31 01:29:34;;;;;;;5.67;3.10;;;1.50;99.90;;;;;;6209990;23;20018;-95
2020/12/31 01:32:00;;;;;;;6.70;3.77;;;1.50;99.90;;;;;;6209443;23;20016;-93
2020/12/31 01:34:26;;;;;;;6.83;3.37;;;1.40;99.90;;;;;;6209969;23;20017;-94
2020/12/31 01:36:53;;;;;;;8.40;3.40;;;1.40;99.90;;;;;;6209295;23;20020;-93
2020/12/31 01:39:22;;;;;;;4.90;2.87;;;1.30;99.90;;;;;;6209411;23;20001;-95
2020/12/31 01:41:49;;;;;;;4.90;2.80;;;1.30;99.90;;;;;;6209527;23;19997;-94
2020/12/31 01:44:15;;;;;;;5.70;3.00;;;1.40;99.90;;;;;;6209638;23;20036;-94
2020/12/31 01:46:46;;;;;;;5.60;3.00;;;1.20;99.90;;;;;;6209715;23;20062;-96
2020/12/31 01:49:14;;;;;;;7.47;3.17;;;1.20;99.90;;;;;;6209177;23;20009;-95
2020/12/31 01:51:43;;;;;;;4.93;2.70;;;1.20;99.90;;;;;;6207936;23;20005;-93
2020/12/31 01:54:09;;;;;;;5.87;2.83;;;1.20;99.90;;;;;;6208651;23;19996;-95
2020/12/31 01:56:35;;;;;;;5.90;2.90;;;1.10;99.90;;;;;;6209741;23;19997;-94
2020/12/31 01:59:02;;;;;;;6.10;3.23;;;1.10;99.90;;;;;;6209288;23;20007;-94
2020/12/31 02:01:28;;;;;;;5.00;3.00;;;1.20;99.90;;;;;;6209903;23;20020;-94
2020/12/31 02:03:56;;;;;;;6.83;2.90;;;1.20;99.90;;;;;;6209519;23;20016;-94
2020/12/31 02:06:23;;;;;;;5.10;2.70;;;1.20;99.90;;;;;;6210101;23;20028;-95
2020/12/31 02:08:49;;;;;;;5.17;2.53;;;1.20;99.90;;;;;;6209199;23;19989;-95
2020/12/31 02:11:16;;;;;;;5.90;3.03;;;1.10;99.90;;;;;;6209729;23;20029;-94
2020/12/31 02:13:43;;;;;;;6.53;3.03;;;1.10;99.90;;;;;;6209712;23;20005;-95
2020/12/31 10:09:39;;;;;;;10.37;6.77;;;1.70;99.90;;;;;;6198088;23;20025;-96
2020/12/31 10:12:06;;;;;;;12.63;7.43;;;1.70;99.90;;;;;;6173266;23;20552;-92
2020/12/31 10:14:33;;;;;;;12.30;7.10;;;1.80;99.90;;;;;;6191779;23;20455;-95
2020/12/31 10:17:06;;;;;;;13.07;7.57;;;1.80;99.90;;;;;;6200114;23;20091;-96
2020/12/31 10:19:40;;;;;;;11.90;7.33;;;1.80;99.90;;;;;;6197065;23;20008;-96
2020/12/31 10:22:18;;;;;;;12.40;7.17;;;2.00;99.90;;;;;;6196996;23;20243;-96
2020/12/31 10:24:48;;;;;;;12.50;7.00;;;2.10;99.90;;;;;;6205876;23;19994;-96
2020/12/31 10:27:25;;;;;;;12.50;7.07;;;2.20;99.90;;;;;;6198752;23;20458;-96
2020/12/31 10:30:01;;;;;;;12.50;6.80;;;2.30;99.90;;;;;;6202351;23;20001;-96
2020/12/31 10:32:30;;;;;;;12.27;7.10;;;2.40;99.90;;;;;;6207389;23;20005;-96
2020/12/31 10:56:00;;;;;;;9.27;5.50;;;2.50;99.90;;;;;;6169420;23;20068;-95
2020/12/31 10:58:34;;;;;;;11.07;6.37;;;2.40;99.90;;;;;;6206117;23;20016;-96
2020/12/31 11:01:15;;;;;;;10.17;5.70;;;2.30;99.90;;;;;;6185174;23;19999;-96
2020/12/31 11:03:48;;;;;;;8.47;5.20;;;2.20;99.90;;;;;;6185399;23;20010;-96
2020/12/31 11:06:34;;;;;;;9.40;5.67;;;2.20;99.90;;;;;;6211013;23;20093;-96
2020/12/31 11:09:08;;;;;;;11.20;6.33;;;2.00;99.90;;;;;;6186163;23;20001;-96
2020/12/31 11:11:35;;;;;;;7.67;5.13;;;2.00;99.90;;;;;;6186249;23;20005;-96
2020/12/31 11:14:07;;;;;;;10.87;6.40;;;1.90;99.90;;;;;;6184803;23;20024;-96
2020/12/31 11:55:44;;;;;;;13.97;7.13;;;2.50;99.90;;;;;;6189081;23;20021;-93
2020/12/31 11:58:32;;;;;;;12.03;7.27;;;2.50;99.90;;;;;;6078875;23;20003;-92
2020/12/31 12:01:23;;;;;;;13.70;7.20;;;2.60;99.90;;;;;;6171317;23;20063;-92
2020/12/31 12:03:49;;;;;;;11.53;6.63;;;2.60;99.90;;;;;;6194874;23;20005;-92
2020/12/31 12:06:18;;;;;;;14.10;6.93;;;2.70;99.90;;;;;;6171277;23;20068;-92
2020/12/31 12:08:52;;;;;;;10.70;5.80;;;2.70;99.90;;;;;;6169203;23;19993;-93
2020/12/31 12:11:18;;;;;;;11.13;5.60;;;2.70;99.90;;;;;;6169758;23;20076;-91
2020/12/31 12:26:49;;;;;;;11.13;6.00;;;2.70;99.90;;;;;;6188333;23;20491;-92
2020/12/31 12:29:18;;;;;;;8.80;5.53;;;2.80;99.90;;;;;;6169576;23;20009;-91
2020/12/31 12:31:48;;;;;;;9.60;5.33;;;2.80;99.90;;;;;;6174587;23;20027;-92
2020/12/31 12:34:21;;;;;;;11.50;5.83;;;2.70;99.90;;;;;;6198489;23;20001;-94
2020/12/31 12:36:50;;;;;;;9.90;4.90;;;2.80;99.90;;;;;;6193466;23;20025;-91
2020/12/31 12:39:17;;;;;;;9.67;5.00;;;2.80;99.90;;;;;;6201028;23;20523;-93
2020/12/31 12:41:44;;;;;;;8.87;5.03;;;2.80;99.90;;;;;;6202881;23;20009;-93
2020/12/31 13:07:52;;;;;;;8.97;4.30;;;2.90;99.90;;;;;;6209096;23;20025;-95
2020/12/31 13:10:21;;;;;;;7.47;4.03;;;3.00;99.90;;;;;;6178560;23;20013;-95
2020/12/31 13:12:59;;;;;;;8.03;4.77;;;3.00;99.90;;;;;;6179059;22;20015;-94
2020/12/31 14:04:57;;;;;;;7.13;3.07;;;3.60;99.90;;;;;;6185080;23;20025;-92
2020/12/31 14:07:28;;;;;;;5.07;3.00;;;3.70;99.90;;;;;;6161502;23;20023;-93
2020/12/31 14:09:59;;;;;;;5.55;2.92;;;3.70;99.90;;;;;;6166773;23;20001;-93
2020/12/31 14:12:26;;;;;;;6.33;3.37;;;3.70;99.90;;;;;;6205338;23;20012;-93
2020/12/31 14:14:51;;;;;;;6.77;2.90;;;3.70;99.90;;;;;;6194378;23;20009;-93
2020/12/31 14:17:18;;;;;;;5.00;2.80;;;3.70;99.90;;;;;;6201083;23;20009;-94
2020/12/31 14:19:44;;;;;;;6.17;3.33;;;3.70;99.90;;;;;;6203350;23;20024;-93
2020/12/31 14:22:10;;;;;;;4.90;2.80;;;3.60;99.90;;;;;;6204648;23;20032;-94
2020/12/31 14:24:36;;;;;;;5.77;3.17;;;3.60;99.90;;;;;;6202546;23;20012;-93
2020/12/31 14:27:03;;;;;;;4.70;2.87;;;3.50;99.90;;;;;;6198796;23;20016;-94
2020/12/31 14:29:36;;;;;;;7.20;3.40;;;3.50;99.90;;;;;;6196975;23;20032;-93
2020/12/31 14:32:08;;;;;;;6.33;3.53;;;3.40;99.90;;;;;;6199918;23;20474;-94
2020/12/31 14:34:40;;;;;;;8.50;3.90;;;3.40;99.90;;;;;;6196160;23;20025;-91
2020/12/31 14:37:11;;;;;;;6.57;3.43;;;3.40;99.90;;;;;;6194092;23;20733;-94
2020/12/31 14:39:38;;;;;;;6.70;3.38;;;3.30;99.90;;;;;;6186042;23;20012;-93
2020/12/31 14:42:32;;;;;;;7.07;3.77;;;3.30;99.90;;;;;;6187057;23;20032;-94
2020/12/31 14:45:02;;;;;;;6.63;3.50;;;3.20;99.90;;;;;;6188958;23;20035;-93
2020/12/31 14:47:50;;;;;;;7.97;3.97;;;3.20;99.90;;;;;;6192450;23;20501;-93
2020/12/31 14:50:40;;;;;;;6.00;3.80;;;3.20;99.90;;;;;;6189072;23;20005;-93
2020/12/31 14:53:15;;;;;;;8.00;3.70;;;3.10;99.90;;;;;;6180797;23;20005;-94
2020/12/31 14:55:55;;;;;;;7.70;3.70;;;3.10;99.90;;;;;;6192335;23;20012;-94
2020/12/31 14:58:31;;;;;;;5.70;3.57;;;3.20;99.90;;;;;;6191936;23;20001;-93
2020/12/31 15:01:09;;;;;;;6.20;3.80;;;3.10;99.90;;;;;;6193387;23;20114;-94
2020/12/31 15:04:09;;;;;;;7.20;3.90;;;3.10;99.90;;;;;;6191621;23;20005;-93
2020/12/31 15:06:41;;;;;;;6.37;3.70;;;3.10;99.90;;;;;;6192053;23;20028;-93
2020/12/31 15:09:45;;;;;;;7.25;3.88;;;3.10;99.90;;;;;;6191210;23;20023;-93
2020/12/31 15:12:38;;;;;;;5.93;3.60;;;3.10;99.90;;;;;;6191707;23;20001;-93
2020/12/31 15:15:14;;;;;;;6.47;3.63;;;3.00;99.90;;;;;;6189576;23;20004;-93
2020/12/31 15:17:53;;;;;;;7.53;3.93;;;3.00;99.90;;;;;;6192167;23;20027;-94
2020/12/31 15:20:23;;;;;;;6.93;3.70;;;3.00;99.90;;;;;;6205753;23;20009;-94
2020/12/31 15:22:54;;;;;;;6.50;3.63;;;2.90;99.90;;;;;;6200035;23;20024;-93
2020/12/31 15:25:40;;;;;;;7.80;3.90;;;2.90;99.90;;;;;;6196782;23;20400;-93
2020/12/31 15:28:07;;;;;;;6.07;3.37;;;2.90;99.90;;;;;;6188931;23;20009;-93
2020/12/31 16:07:04;;;;;;;8.13;3.90;;;2.80;99.90;;;;;;6194015;23;20052;-94
2020/12/31 16:09:37;;;;;;;;;;;2.70;99.90;;;;;;6179909;23;20004;-96
2020/12/31 16:12:08;;;;;;;8.37;4.17;;;2.80;99.90;;;;;;6173534;23;19972;-95
2020/12/31 16:14:39;;;;;;;6.83;4.23;;;2.70;99.90;;;;;;6177630;22;20001;-95
2020/12/31 16:17:05;;;;;;;7.03;3.93;;;2.80;99.90;;;;;;6207247;22;20020;-95
2020/12/31 16:19:34;;;;;;;7.13;3.90;;;2.80;99.90;;;;;;6207918;22;20021;-94
2020/12/31 16:58:15;;;;;;;10.60;5.83;;;2.70;99.90;;;;;;6207247;23;20015;-93
2020/12/31 17:00:45;;;;;;;9.93;6.30;;;2.70;99.90;;;;;;6182548;23;20013;-95
2020/12/31 17:03:27;;;;;;;13.77;6.20;;;2.70;99.90;;;;;;6199041;23;20005;-96
2020/12/31 17:05:59;;;;;;;9.20;5.35;;;2.60;99.90;;;;;;6205404;23;19997;-95
2020/12/31 17:08:25;;;;;;;8.45;5.25;;;2.60;99.90;;;;;;6207383;23;20025;-94
2020/12/31 17:10:50;;;;;;;9.87;5.13;;;2.50;99.90;;;;;;6208225;23;20032;-95
2020/12/31 17:16:06;;;;;;;10.13;5.40;;;2.40;99.90;;;;;;6206917;23;20013;-93
2020/12/31 17:18:42;;;;;;;10.83;5.43;;;2.40;99.90;;;;;;6181902;23;20001;-94
2020/12/31 17:21:10;;;;;;;13.07;6.63;;;2.40;99.90;;;;;;6206737;23;20024;-94
2020/12/31 17:23:36;;;;;;;14.43;8.23;;;2.30;99.90;;;;;;6208603;23;20001;-93
2020/12/31 18:30:18;;;;;;;16.15;8.60;;;2.10;99.90;;;;;;6210080;23;20029;-95
2020/12/31 18:36:37;;;;;;;14.30;8.00;;;2.10;99.90;;;;;;6152643;23;20348;-95
2020/12/31 22:49:18;;;;;;;11.93;6.90;;;2.00;99.90;;;;;;6129398;23;20601;-93
2020/12/31 23:35:45;;;;;;;13.60;7.90;;;1.70;99.90;;;;;;6212701;23;20020;-92
2020/12/31 23:38:25;;;;;;;14.57;8.80;;;1.80;99.90;;;;;;6186121;23;20000;-94
